createdAt,value
2022-09-12T00:01:20.095Z,10.96
2022-09-12T00:03:47.213Z,10.96
2022-09-12T00:06:23.485Z,10.57
2022-09-12T00:08:51.579Z,11.22
2022-09-12T00:11:18.149Z,10.32
2022-09-12T00:13:44.734Z,11.31
2022-09-12T00:16:20.643Z,11.20
2022-09-12T00:18:48.047Z,11.07
2022-09-12T00:21:15.927Z,10.57
2022-09-12T00:23:42.464Z,11.24
2022-09-12T00:26:09.319Z,10.08
2022-09-12T00:28:37.471Z,10.65
2022-09-12T00:31:11.340Z,11.27
2022-09-12T00:33:38.194Z,11.28
2022-09-12T00:36:08.161Z,11.27
2022-09-12T00:38:38.435Z,11.25
2022-09-12T00:41:05.879Z,10.80
2022-09-12T00:43:36.306Z,10.50
2022-09-12T00:46:10.503Z,11.15
2022-09-12T00:48:45.179Z,11.24
2022-09-12T00:51:12.486Z,11.29
2022-09-12T00:53:41.986Z,10.69
2022-09-12T00:56:08.934Z,11.27
2022-09-12T00:58:47.733Z,10.48
2022-09-12T01:01:14.492Z,11.18
2022-09-12T01:03:41.673Z,10.36
2022-09-12T01:06:27.091Z,11.15
2022-09-12T01:08:54.978Z,10.50
2022-09-12T01:11:22.556Z,11.17
2022-09-12T01:13:50.647Z,11.11
2022-09-12T01:16:17.488Z,10.21
2022-09-12T01:19:09.150Z,11.14
2022-09-12T01:21:44.794Z,11.15
2022-09-12T01:24:38.096Z,10.56
2022-09-12T01:27:28.854Z,11.16
2022-09-12T01:30:05.118Z,11.21
2022-09-12T01:32:53.855Z,11.22
2022-09-12T01:35:35.816Z,10.43
2022-09-12T01:38:29.540Z,11.09
2022-09-12T01:41:19.462Z,10.45
2022-09-12T01:44:03.817Z,11.15
2022-09-12T01:46:33.896Z,11.21
2022-09-12T01:49:07.001Z,11.28
2022-09-12T01:51:42.498Z,11.33
2022-09-12T01:54:15.948Z,11.36
2022-09-12T01:56:45.886Z,11.37
2022-09-12T01:59:35.428Z,11.13
2022-09-12T02:02:29.079Z,10.32
2022-09-12T02:05:06.924Z,11.12
2022-09-12T02:07:40.396Z,11.08
2022-09-12T02:10:14.093Z,9.93
2022-09-12T02:12:49.954Z,11.00
2022-09-12T02:15:21.000Z,10.60
2022-09-12T02:17:50.617Z,10.82
2022-09-12T02:20:44.371Z,10.91
2022-09-12T02:23:15.726Z,11.01
2022-09-12T02:25:45.857Z,10.99
2022-09-12T02:28:15.317Z,11.00
2022-09-12T02:31:01.272Z,11.02
2022-09-12T02:33:35.323Z,10.23
2022-09-12T02:36:27.996Z,10.37
2022-09-12T02:38:55.449Z,10.22
2022-09-12T02:41:22.658Z,10.45
2022-09-12T02:43:51.572Z,11.04
2022-09-12T02:46:26.781Z,11.04
2022-09-12T02:48:54.483Z,9.94
2022-09-12T02:51:23.857Z,10.28
2022-09-12T02:53:50.964Z,10.88
2022-09-12T02:56:24.901Z,11.08
2022-09-12T02:58:52.790Z,11.09
2022-09-12T03:01:41.247Z,10.93
2022-09-12T03:04:33.031Z,11.04
2022-09-12T03:07:18.201Z,10.99
2022-09-12T03:09:47.540Z,10.93
2022-09-12T03:12:31.478Z,10.92
2022-09-12T03:15:04.112Z,10.88
2022-09-12T03:17:39.893Z,10.87
2022-09-12T03:20:12.723Z,10.52
2022-09-12T03:22:41.993Z,10.99
2022-09-12T03:25:16.135Z,10.95
2022-09-12T03:28:09.623Z,10.96
2022-09-12T03:30:41.059Z,10.95
2022-09-12T03:33:12.451Z,10.93
2022-09-12T03:35:39.148Z,10.55
2022-09-12T03:38:07.971Z,10.92
2022-09-12T03:40:38.632Z,10.90
2022-09-12T03:43:07.498Z,10.85
2022-09-12T03:45:35.400Z,10.14
2022-09-12T03:48:02.124Z,10.83
2022-09-12T03:50:28.738Z,10.89
2022-09-12T03:52:56.256Z,10.88
2022-09-12T03:55:22.957Z,10.85
2022-09-12T03:57:53.039Z,10.20
2022-09-12T04:00:20.048Z,10.91
2022-09-12T04:02:46.664Z,10.05
2022-09-12T04:05:13.314Z,10.61
2022-09-12T04:07:39.977Z,10.82
2022-09-12T04:10:07.155Z,10.60
2022-09-12T04:12:35.500Z,10.40
2022-09-12T04:15:02.239Z,10.70
2022-09-12T04:17:28.835Z,10.75
2022-09-12T04:19:55.326Z,10.80
2022-09-12T04:22:21.930Z,10.20
2022-09-12T04:24:48.427Z,10.54
2022-09-12T04:27:14.910Z,10.00
2022-09-12T04:29:41.474Z,10.88
2022-09-12T04:32:07.923Z,10.81
2022-09-12T04:34:34.374Z,10.82
2022-09-12T04:37:00.863Z,10.85
2022-09-12T04:39:27.486Z,10.90
2022-09-12T04:41:54.339Z,10.91
2022-09-12T04:44:20.900Z,10.70
2022-09-12T04:46:47.780Z,10.84
2022-09-12T04:49:19.408Z,10.78
2022-09-12T04:51:46.708Z,9.87
2022-09-12T04:54:19.124Z,10.72
2022-09-12T04:56:50.583Z,10.53
2022-09-12T04:59:19.779Z,9.88
2022-09-12T05:01:46.631Z,10.62
2022-09-12T05:04:13.462Z,10.18
2022-09-12T05:06:40.892Z,10.48
2022-09-12T05:09:11.228Z,10.61
2022-09-12T05:12:03.746Z,8.64
2022-09-12T05:14:26.763Z,10.16
2022-09-12T05:16:53.365Z,9.72
2022-09-12T05:19:20.033Z,9.96
2022-09-12T05:21:46.566Z,10.24
2022-09-12T05:24:13.114Z,9.94
2022-09-12T05:26:39.816Z,10.41
2022-09-12T05:29:07.136Z,10.42
2022-09-12T05:31:34.040Z,10.71
2022-09-12T05:34:00.715Z,10.49
2022-09-12T05:36:32.019Z,9.34
2022-09-12T05:39:00.423Z,10.61
2022-09-12T05:41:32.888Z,10.62
2022-09-12T05:44:02.711Z,10.64
2022-09-12T05:46:31.566Z,10.62
2022-09-12T05:49:04.532Z,10.63
2022-09-12T05:51:34.223Z,10.65
2022-09-12T05:54:05.699Z,10.18
2022-09-12T05:56:34.783Z,10.32
2022-09-12T05:59:03.918Z,10.12
2022-09-12T06:01:32.654Z,10.82
2022-09-12T06:04:01.326Z,9.94
2022-09-12T06:06:30.091Z,10.80
2022-09-12T06:08:59.105Z,9.66
2022-09-12T06:11:27.391Z,10.69
2022-09-12T06:13:55.098Z,10.69
2022-09-12T06:16:24.666Z,10.66
2022-09-12T06:18:56.187Z,10.09
2022-09-12T06:21:24.139Z,10.76
2022-09-12T06:23:51.007Z,10.40
2022-09-12T06:26:21.433Z,10.73
2022-09-12T06:28:48.180Z,10.71
2022-09-12T06:31:22.261Z,9.95
2022-09-12T06:33:51.817Z,10.75
2022-09-12T06:36:24.620Z,10.76
2022-09-12T06:39:08.206Z,10.83
2022-09-12T06:41:35.251Z,10.22
2022-09-12T06:44:02.522Z,10.74
2022-09-12T06:46:29.455Z,10.91
2022-09-12T06:48:57.057Z,10.05
2022-09-12T06:51:23.696Z,10.83
2022-09-12T06:53:50.386Z,9.01
2022-09-12T06:56:21.939Z,10.36
2022-09-12T06:58:50.410Z,10.27
2022-09-12T07:01:25.271Z,10.77
2022-09-12T07:03:53.805Z,10.90
2022-09-12T07:06:22.397Z,10.47
2022-09-12T07:08:48.987Z,10.96
2022-09-12T07:11:23.921Z,10.29
2022-09-12T07:13:53.680Z,10.91
2022-09-12T07:16:20.454Z,10.80
2022-09-12T07:18:54.714Z,10.49
2022-09-12T07:21:21.677Z,10.94
2022-09-12T07:23:49.193Z,10.15
2022-09-12T07:26:16.521Z,10.09
2022-09-12T07:28:44.138Z,10.62
2022-09-12T07:31:18.193Z,11.05
2022-09-12T07:33:44.905Z,11.08
2022-09-12T07:36:14.313Z,11.12
2022-09-12T07:38:41.954Z,11.18
2022-09-12T07:41:19.520Z,10.95
2022-09-12T07:43:46.460Z,11.19
2022-09-12T07:46:14.433Z,11.08
2022-09-12T07:48:41.105Z,11.38
2022-09-12T07:51:10.861Z,11.44
2022-09-12T07:53:40.121Z,10.02
2022-09-12T07:56:10.232Z,10.88
2022-09-12T07:58:38.238Z,11.68
2022-09-12T08:01:13.295Z,10.50
2022-09-12T08:03:41.521Z,11.58
2022-09-12T08:06:09.818Z,11.50
2022-09-12T08:08:37.538Z,11.52
2022-09-12T08:11:09.261Z,10.35
2022-09-12T08:13:37.433Z,11.64
2022-09-12T08:16:06.657Z,11.48
2022-09-12T08:18:35.647Z,11.76
2022-09-12T08:21:05.473Z,11.74
2022-09-12T08:23:33.587Z,11.59
2022-09-12T08:26:06.106Z,10.74
2022-09-12T08:28:35.440Z,10.22
2022-09-12T08:31:06.870Z,11.81
2022-09-12T08:33:34.062Z,11.26
2022-09-12T08:36:05.161Z,11.71
2022-09-12T08:38:32.531Z,11.91
2022-09-12T08:41:14.588Z,12.06
2022-09-12T08:43:59.446Z,12.05
2022-09-12T08:46:39.104Z,12.10
2022-09-12T08:49:12.284Z,10.71
2022-09-12T08:51:39.980Z,12.11
2022-09-12T08:54:19.580Z,11.36
2022-09-12T08:56:47.766Z,11.52
2022-09-12T08:59:15.274Z,11.93
2022-09-12T09:01:44.626Z,12.06
2022-09-12T09:04:14.206Z,11.97
2022-09-12T09:07:01.092Z,11.32
2022-09-12T09:10:00.777Z,11.94
2022-09-12T09:12:48.496Z,11.90
2022-09-12T09:15:21.361Z,11.91
2022-09-12T09:17:51.027Z,11.87
2022-09-12T09:20:29.949Z,11.84
2022-09-12T09:23:15.562Z,11.84
2022-09-12T09:26:07.757Z,11.79
2022-09-12T09:28:42.327Z,11.82
2022-09-12T09:31:17.104Z,11.65
2022-09-12T09:33:46.429Z,11.80
2022-09-12T09:36:50.367Z,11.80
2022-09-12T09:39:44.823Z,11.87
2022-09-12T09:42:42.565Z,11.88
2022-09-12T09:45:19.385Z,11.67
2022-09-12T09:48:10.826Z,11.97
2022-09-12T09:50:38.708Z,12.02
2022-09-12T09:53:11.386Z,12.03
2022-09-12T09:55:42.255Z,12.05
2022-09-12T09:58:08.758Z,11.47
2022-09-12T10:00:37.323Z,12.07
2022-09-12T10:03:10.178Z,12.04
2022-09-12T10:05:48.481Z,11.97
2022-09-12T10:08:27.480Z,12.04
2022-09-12T10:11:20.233Z,12.22
2022-09-12T10:13:59.970Z,12.23
2022-09-12T10:16:29.393Z,12.24
2022-09-12T10:19:01.539Z,12.19
2022-09-12T10:21:41.279Z,11.44
2022-09-12T10:24:21.147Z,12.10
2022-09-12T10:26:56.931Z,12.18
2022-09-12T10:29:33.284Z,11.82
2022-09-12T10:32:04.849Z,12.19
2022-09-12T10:34:37.248Z,11.58
2022-09-12T10:37:07.279Z,12.21
2022-09-12T10:39:37.695Z,11.48
2022-09-12T10:42:05.729Z,11.70
2022-09-12T10:44:34.961Z,12.54
2022-09-12T10:47:20.629Z,12.58
2022-09-12T10:49:47.188Z,12.46
2022-09-12T10:52:25.633Z,13.02
2022-09-12T10:54:52.270Z,10.98
2022-09-12T10:57:51.645Z,12.07
2022-09-12T11:00:20.479Z,12.55
2022-09-12T11:03:16.377Z,12.65
2022-09-12T11:05:56.473Z,11.89
2022-09-12T11:08:28.839Z,12.59
2022-09-12T11:11:04.618Z,12.20
2022-09-12T11:13:55.683Z,12.49
2022-09-12T11:16:49.364Z,12.27
2022-09-12T11:19:40.886Z,12.42
2022-09-12T11:22:16.114Z,12.42
2022-09-12T11:25:12.212Z,12.42
2022-09-12T11:27:54.015Z,12.49
2022-09-12T11:30:20.571Z,12.49
2022-09-12T11:33:13.522Z,12.48
2022-09-12T11:35:55.300Z,12.15
2022-09-12T11:38:59.033Z,12.38
2022-09-12T11:41:33.703Z,12.33
2022-09-12T11:44:04.610Z,12.32
2022-09-12T11:46:39.495Z,11.25
2022-09-12T11:49:15.598Z,12.49
2022-09-12T11:51:49.750Z,12.67
2022-09-12T11:55:01.709Z,12.36
2022-09-12T11:57:48.422Z,12.93
2022-09-12T12:00:17.713Z,12.90
2022-09-12T12:03:13.867Z,12.90
2022-09-12T12:05:55.345Z,12.94
2022-09-12T12:08:24.063Z,12.99
2022-09-12T12:10:56.248Z,12.97
2022-09-12T12:13:38.651Z,13.00
2022-09-12T12:16:21.217Z,13.17
2022-09-12T12:19:19.984Z,13.22
2022-09-12T12:21:48.305Z,13.18
2022-09-12T12:24:17.689Z,13.07
2022-09-12T12:26:53.018Z,12.89
2022-09-12T12:29:19.461Z,12.80
2022-09-12T12:32:04.239Z,12.72
2022-09-12T12:35:00.980Z,12.67
2022-09-12T12:37:29.651Z,12.61
2022-09-12T12:40:07.649Z,12.01
2022-09-12T12:42:34.487Z,12.50
2022-09-12T12:45:06.774Z,12.44
2022-09-12T12:47:42.836Z,12.20
2022-09-12T12:50:24.563Z,12.50
2022-09-12T12:52:53.684Z,12.58
2022-09-12T12:55:23.813Z,12.64
2022-09-12T12:57:52.916Z,12.25
2022-09-12T13:00:25.388Z,12.75
2022-09-12T13:03:06.912Z,12.94
2022-09-12T13:05:51.779Z,12.82
2022-09-12T13:08:18.235Z,13.06
2022-09-12T13:10:57.990Z,13.04
2022-09-12T13:13:39.978Z,12.97
2022-09-12T13:16:07.774Z,12.74
2022-09-12T13:18:45.544Z,13.00
2022-09-12T13:21:15.161Z,12.58
2022-09-12T13:23:42.698Z,12.71
2022-09-12T13:26:20.773Z,12.83
2022-09-12T13:28:47.425Z,12.07
2022-09-12T13:31:24.486Z,12.44
2022-09-12T13:33:57.880Z,11.50
2022-09-12T13:36:44.081Z,12.83
2022-09-12T13:39:19.071Z,12.65
2022-09-12T13:41:56.197Z,11.99
2022-09-12T13:44:25.757Z,12.68
2022-09-12T13:46:53.145Z,12.42
2022-09-12T13:49:26.370Z,12.07
2022-09-12T13:51:59.913Z,12.54
2022-09-12T13:54:27.685Z,12.42
2022-09-12T13:56:54.451Z,12.49
2022-09-12T13:59:20.915Z,12.81
2022-09-12T14:01:48.764Z,12.73
2022-09-12T14:04:43.179Z,11.64
2022-09-12T14:07:20.856Z,11.21
2022-09-12T14:09:59.449Z,12.56
2022-09-12T14:12:31.029Z,12.49
2022-09-12T14:14:57.931Z,12.47
2022-09-12T14:17:54.771Z,12.46
2022-09-12T14:20:23.371Z,11.91
2022-09-12T14:22:53.366Z,12.30
2022-09-12T14:25:24.441Z,12.29
2022-09-12T14:27:55.737Z,12.43
2022-09-12T14:30:30.326Z,12.43
2022-09-12T14:33:05.839Z,12.43
2022-09-12T14:35:35.475Z,11.89
2022-09-12T14:38:23.695Z,11.87
2022-09-12T14:41:00.948Z,11.93
2022-09-12T14:43:33.299Z,11.49
2022-09-12T14:46:23.247Z,12.43
2022-09-12T14:48:57.744Z,12.46
2022-09-12T14:51:37.475Z,12.47
2022-09-12T14:54:04.068Z,12.49
2022-09-12T14:56:43.454Z,12.45
2022-09-12T14:59:34.961Z,12.45
2022-09-12T15:02:13.446Z,12.42
2022-09-12T15:04:42.048Z,12.42
2022-09-12T15:07:15.563Z,12.41
2022-09-12T15:09:47.112Z,12.36
2022-09-12T15:12:13.942Z,12.26
2022-09-12T15:14:40.435Z,12.21
2022-09-12T15:17:07.104Z,12.15
2022-09-12T15:19:33.581Z,12.01
2022-09-12T15:22:00.212Z,12.20
2022-09-12T15:24:26.811Z,11.86
2022-09-12T15:26:53.669Z,11.88
2022-09-12T15:29:20.146Z,12.04
2022-09-12T15:31:47.468Z,11.80
2022-09-12T15:34:14.022Z,12.01
2022-09-12T15:36:40.551Z,11.78
2022-09-12T15:39:07.147Z,11.99
2022-09-12T15:41:38.182Z,11.97
2022-09-12T15:44:12.503Z,11.74
2022-09-12T15:46:39.821Z,11.43
2022-09-12T15:49:07.169Z,11.58
2022-09-12T15:51:34.162Z,9.81
2022-09-12T15:54:02.223Z,11.48
2022-09-12T15:56:28.982Z,10.84
2022-09-12T15:58:59.243Z,11.55
2022-09-12T16:01:27.617Z,11.09
2022-09-12T16:03:54.255Z,11.80
2022-09-12T16:06:20.807Z,11.92
2022-09-12T16:08:47.558Z,11.77
2022-09-12T16:11:23.732Z,11.72
2022-09-12T16:13:52.570Z,11.18
2022-09-12T16:16:19.184Z,11.21
2022-09-12T16:18:45.782Z,11.75
2022-09-12T16:21:15.251Z,11.59
2022-09-12T16:23:43.549Z,11.21
2022-09-12T16:26:10.837Z,11.08
2022-09-12T16:28:37.785Z,11.76
2022-09-12T16:31:06.613Z,11.77
2022-09-12T16:33:34.087Z,10.84
2022-09-12T16:36:04.315Z,11.73
2022-09-12T16:38:31.389Z,11.37
2022-09-12T16:41:02.412Z,11.76
2022-09-12T16:43:30.594Z,10.79
2022-09-12T16:46:05.021Z,11.49
2022-09-12T16:48:32.098Z,11.80
2022-09-12T16:51:00.843Z,10.65
2022-09-12T16:53:31.245Z,11.53
2022-09-12T16:55:57.881Z,8.95
2022-09-12T16:58:24.561Z,11.56
2022-09-12T17:01:03.799Z,11.07
2022-09-12T17:03:31.387Z,11.54
2022-09-12T17:06:03.033Z,11.78
2022-09-12T17:08:29.860Z,11.79
2022-09-12T17:11:04.219Z,11.78
2022-09-12T17:13:53.043Z,11.56
2022-09-12T17:16:17.898Z,11.74
2022-09-12T17:18:45.039Z,11.76
2022-09-12T17:21:12.464Z,9.86
2022-09-12T17:23:40.152Z,11.68
2022-09-12T17:26:08.386Z,10.97
2022-09-12T17:28:35.393Z,11.70
2022-09-12T17:31:05.065Z,11.09
2022-09-12T17:33:32.201Z,11.65
2022-09-12T17:36:06.725Z,11.66
2022-09-12T17:38:38.053Z,11.38
2022-09-12T17:41:11.322Z,11.68
2022-09-12T17:43:38.235Z,11.30
2022-09-12T17:46:05.242Z,11.39
2022-09-12T17:48:32.476Z,11.60
2022-09-12T17:50:59.540Z,11.27
2022-09-12T17:53:26.108Z,11.66
2022-09-12T17:55:54.374Z,10.75
2022-09-12T17:58:21.050Z,11.62
2022-09-12T18:01:06.328Z,11.34
2022-09-12T18:03:35.131Z,10.69
2022-09-12T18:06:02.401Z,11.60
2022-09-12T18:08:30.169Z,10.55
2022-09-12T18:11:05.268Z,10.64
2022-09-12T18:13:33.343Z,11.66
2022-09-12T18:16:08.278Z,11.36
2022-09-12T18:18:39.323Z,11.38
2022-09-12T18:21:07.965Z,11.63
2022-09-12T18:23:35.672Z,11.60
2022-09-12T18:26:05.195Z,11.21
2022-09-12T18:28:36.841Z,11.50
2022-09-12T18:31:04.270Z,11.48
2022-09-12T18:33:33.905Z,11.52
2022-09-12T18:36:13.300Z,11.53
2022-09-12T18:38:43.419Z,11.54
2022-09-12T18:41:23.838Z,11.29
2022-09-12T18:43:57.938Z,11.52
2022-09-12T18:46:25.821Z,11.30
2022-09-12T18:51:52.303Z,11.24
2022-09-12T18:54:21.611Z,11.52
2022-09-12T18:56:51.416Z,11.52
2022-09-12T18:59:20.518Z,11.52
2022-09-12T19:01:49.439Z,11.50
2022-09-12T19:04:16.689Z,11.01
2022-09-12T19:06:48.561Z,11.48
2022-09-12T19:09:18.791Z,11.51
2022-09-12T19:11:51.022Z,11.55
2022-09-12T19:14:22.667Z,11.59
2022-09-12T19:16:50.829Z,11.60
2022-09-12T19:19:17.697Z,11.58
2022-09-12T19:21:45.019Z,11.52
2022-09-12T19:24:13.671Z,11.51
2022-09-12T19:26:40.999Z,11.55
2022-09-12T19:29:08.568Z,11.57
2022-09-12T19:31:35.359Z,11.20
2022-09-12T19:34:04.451Z,11.07
2022-09-12T19:36:44.842Z,11.56
2022-09-12T19:39:13.495Z,11.51
2022-09-12T19:41:40.392Z,10.59
2022-09-12T19:44:06.918Z,11.42
2022-09-12T19:46:34.978Z,10.88
2022-09-12T19:49:01.571Z,10.79
2022-09-12T19:51:28.431Z,10.43
2022-09-12T19:53:55.390Z,11.41
2022-09-12T19:56:22.477Z,10.26
2022-09-12T19:58:55.701Z,11.41
2022-09-12T20:01:28.340Z,11.22
2022-09-12T20:03:56.822Z,11.45
2022-09-12T20:06:23.560Z,11.46
2022-09-12T20:08:50.131Z,11.45
2022-09-12T20:11:21.880Z,11.44
2022-09-12T20:13:54.998Z,11.47
2022-09-12T20:16:29.066Z,10.63
2022-09-12T20:19:11.899Z,8.49
2022-09-12T20:21:41.659Z,11.52
2022-09-12T20:24:13.832Z,11.29
2022-09-12T20:26:40.610Z,10.19
2022-09-12T20:29:08.095Z,11.27
2022-09-12T20:31:36.036Z,11.24
2022-09-12T20:34:03.234Z,11.44
2022-09-12T20:36:31.367Z,11.43
2022-09-12T20:39:01.081Z,11.44
2022-09-12T20:41:29.522Z,10.69
2022-09-12T20:43:57.234Z,10.33
2022-09-12T20:46:25.383Z,11.48
2022-09-12T20:48:52.340Z,11.56
2022-09-12T20:51:20.466Z,10.92
2022-09-12T20:53:47.848Z,11.17
2022-09-12T20:56:15.034Z,11.03
2022-09-12T20:58:44.050Z,10.83
2022-09-12T21:01:13.481Z,11.56
2022-09-12T21:03:41.879Z,11.38
2022-09-12T21:06:09.710Z,11.55
2022-09-12T21:08:37.024Z,11.09
2022-09-12T21:11:04.164Z,11.51
2022-09-12T21:13:30.704Z,11.54
2022-09-12T21:16:01.955Z,11.56
2022-09-12T21:18:29.072Z,11.55
2022-09-12T21:20:56.650Z,11.52
2022-09-12T21:23:25.350Z,11.50
2022-09-12T21:25:52.776Z,11.54
2022-09-12T21:28:20.249Z,11.39
2022-09-12T21:30:50.945Z,11.60
2022-09-12T21:33:19.253Z,10.95
2022-09-12T21:35:47.232Z,11.60
2022-09-12T21:38:18.204Z,11.58
2022-09-12T21:40:45.199Z,10.84
2022-09-12T21:43:13.182Z,11.39
2022-09-12T21:45:40.203Z,11.54
2022-09-12T21:48:06.733Z,11.09
2022-09-12T21:50:33.243Z,11.50
2022-09-12T21:52:59.886Z,11.54
2022-09-12T21:55:27.266Z,11.53
2022-09-12T21:57:57.201Z,11.62
2022-09-12T22:00:24.022Z,11.61
2022-09-12T22:02:50.616Z,11.57
2022-09-12T22:05:17.519Z,10.63
2022-09-12T22:07:44.105Z,11.25
2022-09-12T22:10:11.092Z,11.49
2022-09-12T22:12:37.658Z,11.55
2022-09-12T22:15:22.823Z,11.58
2022-09-12T22:17:51.606Z,11.61
2022-09-12T22:20:18.110Z,11.38
2022-09-12T22:23:03.259Z,11.63
2022-09-12T22:25:30.620Z,11.02
2022-09-12T22:27:57.116Z,11.63
2022-09-12T22:30:23.764Z,11.65
2022-09-12T22:32:51.407Z,11.23
2022-09-12T22:35:19.741Z,11.06
2022-09-12T22:37:47.786Z,11.36
2022-09-12T22:40:14.430Z,11.19
2022-09-12T22:42:41.004Z,11.11
2022-09-12T22:45:08.120Z,11.56
2022-09-12T22:47:34.583Z,11.12
2022-09-12T22:50:01.161Z,11.48
2022-09-12T22:52:27.643Z,11.58
2022-09-12T22:54:54.198Z,11.61
2022-09-12T22:57:20.737Z,11.43
2022-09-12T22:59:47.238Z,10.87
2022-09-12T23:02:13.774Z,11.18
2022-09-12T23:04:40.223Z,11.76
2022-09-12T23:07:06.802Z,11.29
2022-09-12T23:09:35.371Z,11.50
2022-09-12T23:12:02.625Z,11.72
2022-09-12T23:14:29.137Z,11.71
2022-09-12T23:16:55.647Z,11.69
2022-09-12T23:19:22.202Z,11.67
2022-09-12T23:21:48.689Z,11.71
2022-09-12T23:24:15.205Z,11.48
2022-09-12T23:26:41.679Z,11.72
2022-09-12T23:29:08.818Z,11.69
2022-09-12T23:31:35.511Z,11.12
2022-09-12T23:34:05.792Z,11.70
2022-09-12T23:36:32.913Z,10.80
2022-09-12T23:38:59.452Z,11.57
2022-09-12T23:41:26.030Z,11.24
2022-09-12T23:43:52.724Z,11.64
2022-09-12T23:46:20.904Z,11.14
2022-09-12T23:48:47.656Z,11.21
2022-09-12T23:51:14.838Z,11.57
2022-09-12T23:53:41.799Z,11.69
2022-09-12T23:56:08.620Z,11.24
2022-09-12T23:58:35.186Z,11.67
